Terminal Aerodrome Forecast
Issued by NWS

Home | Current Version | Previous Version | Text Only | Print | Product List | Glossary On
Versions: 1 2 3 4 5 6 7 8 9 10 11 12 13 14 15 16 17 18 19 20 21 22 23
000
FTUS41 KBGM 260500
TAFRME
TAF
KRME 260529Z 2606/2706 09004KT P6SM SCT200
     FM261100 10004KT P6SM OVC100
      TEMPO 2619/2622 2SM -SN OVC015
     FM262200 11008KT 1SM -SN OVC015=

USA.gov is the U.S. government's official web portal to all federal, state and local government web resources and services.